sensor_id;sensor_type;location;lat;lon;timestamp;temperature;humidity
30999;DHT22;20549;50.042;8.968;2023-05-29T00:00:16;16.90;51.00
30999;DHT22;20549;50.042;8.968;2023-05-29T00:03:11;16.80;51.00
30999;DHT22;20549;50.042;8.968;2023-05-29T00:05:38;16.80;51.20
30999;DHT22;20549;50.042;8.968;2023-05-29T00:08:05;16.80;51.10
30999;DHT22;20549;50.042;8.968;2023-05-29T00:10:31;16.70;51.20
30999;DHT22;20549;50.042;8.968;2023-05-29T00:12:58;16.70;51.50
30999;DHT22;20549;50.042;8.968;2023-05-29T00:15:32;16.70;51.70
30999;DHT22;20549;50.042;8.968;2023-05-29T00:17:58;16.60;51.90
30999;DHT22;20549;50.042;8.968;2023-05-29T00:20:25;16.60;51.90
30999;DHT22;20549;50.042;8.968;2023-05-29T00:22:51;16.60;52.10
30999;DHT22;20549;50.042;8.968;2023-05-29T00:25:18;16.60;52.20
30999;DHT22;20549;50.042;8.968;2023-05-29T00:27:45;16.50;52.20
30999;DHT22;20549;50.042;8.968;2023-05-29T00:33:00;16.50;52.60
30999;DHT22;20549;50.042;8.968;2023-05-29T00:35:26;16.50;52.50
30999;DHT22;20549;50.042;8.968;2023-05-29T00:37:54;16.40;52.70
30999;DHT22;20549;50.042;8.968;2023-05-29T00:40:20;16.40;52.90
30999;DHT22;20549;50.042;8.968;2023-05-29T00:42:47;16.30;52.80
30999;DHT22;20549;50.042;8.968;2023-05-29T00:45:38;16.30;53.00
30999;DHT22;20549;50.042;8.968;2023-05-29T00:48:33;16.20;53.10
30999;DHT22;20549;50.042;8.968;2023-05-29T00:51:00;16.20;53.00
30999;DHT22;20549;50.042;8.968;2023-05-29T00:53:27;16.10;53.10
30999;DHT22;20549;50.042;8.968;2023-05-29T00:55:53;16.00;53.30
30999;DHT22;20549;50.042;8.968;2023-05-29T00:58:22;15.90;53.60
30999;DHT22;20549;50.042;8.968;2023-05-29T01:04:06;15.80;54.00
30999;DHT22;20549;50.042;8.968;2023-05-29T01:06:35;15.80;53.90
30999;DHT22;20549;50.042;8.968;2023-05-29T01:09:07;15.70;53.90
30999;DHT22;20549;50.042;8.968;2023-05-29T01:20:47;15.60;54.30
30999;DHT22;20549;50.042;8.968;2023-05-29T01:28:29;15.40;54.60
30999;DHT22;20549;50.042;8.968;2023-05-29T01:30:54;15.40;54.80
30999;DHT22;20549;50.042;8.968;2023-05-29T01:36:09;15.30;55.20
30999;DHT22;20549;50.042;8.968;2023-05-29T01:38:33;15.30;55.20
30999;DHT22;20549;50.042;8.968;2023-05-29T01:41:31;15.30;55.40
30999;DHT22;20549;50.042;8.968;2023-05-29T01:44:02;15.30;55.60
30999;DHT22;20549;50.042;8.968;2023-05-29T01:46:27;15.30;55.40
30999;DHT22;20549;50.042;8.968;2023-05-29T01:48:54;15.20;55.80
30999;DHT22;20549;50.042;8.968;2023-05-29T01:51:21;15.20;55.80
30999;DHT22;20549;50.042;8.968;2023-05-29T01:54:13;15.20;55.90
30999;DHT22;20549;50.042;8.968;2023-05-29T01:56:39;15.20;56.10
30999;DHT22;20549;50.042;8.968;2023-05-29T01:59:06;15.10;56.00
30999;DHT22;20549;50.042;8.968;2023-05-29T02:01:33;15.10;56.10
30999;DHT22;20549;50.042;8.968;2023-05-29T02:03:59;15.10;56.30
30999;DHT22;20549;50.042;8.968;2023-05-29T02:06:26;15.00;56.50
30999;DHT22;20549;50.042;8.968;2023-05-29T02:08:56;15.00;56.50
30999;DHT22;20549;50.042;8.968;2023-05-29T02:12:00;15.00;56.60
30999;DHT22;20549;50.042;8.968;2023-05-29T02:17:24;14.90;56.60
30999;DHT22;20549;50.042;8.968;2023-05-29T02:19:50;14.90;56.60
30999;DHT22;20549;50.042;8.968;2023-05-29T02:22:17;14.80;56.70
30999;DHT22;20549;50.042;8.968;2023-05-29T02:24:55;14.80;56.90
30999;DHT22;20549;50.042;8.968;2023-05-29T02:27:44;14.70;57.20
30999;DHT22;20549;50.042;8.968;2023-05-29T02:30:20;14.70;57.20
30999;DHT22;20549;50.042;8.968;2023-05-29T02:32:53;14.70;57.30
30999;DHT22;20549;50.042;8.968;2023-05-29T02:35:19;14.60;57.40
30999;DHT22;20549;50.042;8.968;2023-05-29T02:40:50;14.50;57.70
30999;DHT22;20549;50.042;8.968;2023-05-29T02:46:20;14.50;58.00
30999;DHT22;20549;50.042;8.968;2023-05-29T02:48:57;14.40;57.90
30999;DHT22;20549;50.042;8.968;2023-05-29T02:51:28;14.40;58.30
30999;DHT22;20549;50.042;8.968;2023-05-29T02:53:55;14.40;58.30
30999;DHT22;20549;50.042;8.968;2023-05-29T02:56:21;14.40;58.60
30999;DHT22;20549;50.042;8.968;2023-05-29T02:58:51;14.30;58.50
30999;DHT22;20549;50.042;8.968;2023-05-29T03:01:17;14.30;58.70
30999;DHT22;20549;50.042;8.968;2023-05-29T03:03:44;14.30;58.90
30999;DHT22;20549;50.042;8.968;2023-05-29T03:06:32;14.20;59.00
30999;DHT22;20549;50.042;8.968;2023-05-29T03:09:12;14.20;59.10
30999;DHT22;20549;50.042;8.968;2023-05-29T03:11:54;14.10;59.10
30999;DHT22;20549;50.042;8.968;2023-05-29T03:14:20;14.10;59.40
30999;DHT22;20549;50.042;8.968;2023-05-29T03:16:47;14.10;59.20
30999;DHT22;20549;50.042;8.968;2023-05-29T03:19:14;14.00;59.40
30999;DHT22;20549;50.042;8.968;2023-05-29T03:21:40;14.00;59.60
30999;DHT22;20549;50.042;8.968;2023-05-29T03:24:07;14.00;59.80
30999;DHT22;20549;50.042;8.968;2023-05-29T03:26:33;13.90;59.80
30999;DHT22;20549;50.042;8.968;2023-05-29T03:29:00;13.90;60.00
30999;DHT22;20549;50.042;8.968;2023-05-29T03:31:27;13.90;60.00
30999;DHT22;20549;50.042;8.968;2023-05-29T03:34:09;13.90;60.00
30999;DHT22;20549;50.042;8.968;2023-05-29T03:36:36;13.90;60.20
30999;DHT22;20549;50.042;8.968;2023-05-29T03:39:08;13.80;60.00
30999;DHT22;20549;50.042;8.968;2023-05-29T03:41:34;13.90;60.30
30999;DHT22;20549;50.042;8.968;2023-05-29T03:44:01;13.90;60.30
30999;DHT22;20549;50.042;8.968;2023-05-29T03:46:28;13.90;60.50
30999;DHT22;20549;50.042;8.968;2023-05-29T03:48:57;13.90;60.70
30999;DHT22;20549;50.042;8.968;2023-05-29T03:51:23;14.00;60.80
30999;DHT22;20549;50.042;8.968;2023-05-29T03:53:57;14.00;60.80
30999;DHT22;20549;50.042;8.968;2023-05-29T03:56:24;14.10;60.80
30999;DHT22;20549;50.042;8.968;2023-05-29T03:58:58;14.10;60.80
30999;DHT22;20549;50.042;8.968;2023-05-29T04:01:25;14.10;60.70
30999;DHT22;20549;50.042;8.968;2023-05-29T04:03:51;14.20;60.90
30999;DHT22;20549;50.042;8.968;2023-05-29T04:06:28;14.20;61.00
30999;DHT22;20549;50.042;8.968;2023-05-29T04:09:03;14.30;61.00
30999;DHT22;20549;50.042;8.968;2023-05-29T04:11:32;14.30;60.70
30999;DHT22;20549;50.042;8.968;2023-05-29T04:16:59;14.50;61.00
30999;DHT22;20549;50.042;8.968;2023-05-29T04:19:25;14.50;60.50
30999;DHT22;20549;50.042;8.968;2023-05-29T04:21:52;14.60;60.60
30999;DHT22;20549;50.042;8.968;2023-05-29T04:24:19;14.60;60.70
30999;DHT22;20549;50.042;8.968;2023-05-29T04:26:45;14.70;61.00
30999;DHT22;20549;50.042;8.968;2023-05-29T04:29:12;14.80;61.00
30999;DHT22;20549;50.042;8.968;2023-05-29T04:32:01;14.90;61.10
30999;DHT22;20549;50.042;8.968;2023-05-29T04:34:30;15.00;61.10
30999;DHT22;20549;50.042;8.968;2023-05-29T04:36:57;15.10;60.80
30999;DHT22;20549;50.042;8.968;2023-05-29T04:39:23;15.20;60.80
30999;DHT22;20549;50.042;8.968;2023-05-29T04:41:50;15.30;60.80
30999;DHT22;20549;50.042;8.968;2023-05-29T04:47:20;15.50;60.60
30999;DHT22;20549;50.042;8.968;2023-05-29T04:49:58;15.60;60.30
30999;DHT22;20549;50.042;8.968;2023-05-29T04:55:19;15.80;60.40
30999;DHT22;20549;50.042;8.968;2023-05-29T05:00:36;16.30;61.20
30999;DHT22;20549;50.042;8.968;2023-05-29T05:03:28;16.70;61.60
30999;DHT22;20549;50.042;8.968;2023-05-29T05:05:54;17.10;61.90
30999;DHT22;20549;50.042;8.968;2023-05-29T05:08:21;17.60;61.90
30999;DHT22;20549;50.042;8.968;2023-05-29T05:10:47;18.10;61.80
30999;DHT22;20549;50.042;8.968;2023-05-29T05:13:14;18.70;61.40
30999;DHT22;20549;50.042;8.968;2023-05-29T05:16:00;19.30;60.80
30999;DHT22;20549;50.042;8.968;2023-05-29T05:21:41;20.70;59.70
30999;DHT22;20549;50.042;8.968;2023-05-29T05:27:11;22.00;57.60
30999;DHT22;20549;50.042;8.968;2023-05-29T05:32:42;23.20;55.90
30999;DHT22;20549;50.042;8.968;2023-05-29T05:35:08;23.80;55.20
30999;DHT22;20549;50.042;8.968;2023-05-29T05:37:35;24.40;54.40
30999;DHT22;20549;50.042;8.968;2023-05-29T05:43:14;25.40;52.60
30999;DHT22;20549;50.042;8.968;2023-05-29T05:45:40;25.80;51.60
30999;DHT22;20549;50.042;8.968;2023-05-29T05:48:07;26.10;50.70
30999;DHT22;20549;50.042;8.968;2023-05-29T05:50:34;26.40;50.20
30999;DHT22;20549;50.042;8.968;2023-05-29T05:53:32;26.70;49.90
30999;DHT22;20549;50.042;8.968;2023-05-29T05:55:58;27.00;49.70
30999;DHT22;20549;50.042;8.968;2023-05-29T06:01:29;27.80;49.00
30999;DHT22;20549;50.042;8.968;2023-05-29T06:03:55;28.30;48.60
30999;DHT22;20549;50.042;8.968;2023-05-29T06:06:22;28.70;48.00
30999;DHT22;20549;50.042;8.968;2023-05-29T06:08:48;29.00;48.10
30999;DHT22;20549;50.042;8.968;2023-05-29T06:11:15;29.40;47.30
30999;DHT22;20549;50.042;8.968;2023-05-29T06:13:42;29.80;47.00
30999;DHT22;20549;50.042;8.968;2023-05-29T06:16:08;30.20;46.50
30999;DHT22;20549;50.042;8.968;2023-05-29T06:18:35;30.70;46.00
30999;DHT22;20549;50.042;8.968;2023-05-29T06:21:01;31.10;45.50
30999;DHT22;20549;50.042;8.968;2023-05-29T06:26:26;32.00;44.00
30999;DHT22;20549;50.042;8.968;2023-05-29T06:29:14;32.40;43.30
30999;DHT22;20549;50.042;8.968;2023-05-29T06:31:41;32.70;42.60
30999;DHT22;20549;50.042;8.968;2023-05-29T06:34:42;33.00;42.30
30999;DHT22;20549;50.042;8.968;2023-05-29T06:37:30;33.20;41.80
30999;DHT22;20549;50.042;8.968;2023-05-29T06:39:57;33.60;41.30
30999;DHT22;20549;50.042;8.968;2023-05-29T06:42:23;33.80;40.70
30999;DHT22;20549;50.042;8.968;2023-05-29T06:44:50;34.00;40.10
30999;DHT22;20549;50.042;8.968;2023-05-29T06:47:17;34.10;39.50
30999;DHT22;20549;50.042;8.968;2023-05-29T06:49:53;34.30;39.20
30999;DHT22;20549;50.042;8.968;2023-05-29T06:52:20;34.40;38.90
30999;DHT22;20549;50.042;8.968;2023-05-29T06:54:47;34.50;38.70
30999;DHT22;20549;50.042;8.968;2023-05-29T07:03:21;35.00;37.70
30999;DHT22;20549;50.042;8.968;2023-05-29T07:05:47;35.20;37.40
30999;DHT22;20549;50.042;8.968;2023-05-29T07:08:14;35.20;37.10
30999;DHT22;20549;50.042;8.968;2023-05-29T07:10:40;35.40;37.20
30999;DHT22;20549;50.042;8.968;2023-05-29T07:13:07;35.60;36.90
30999;DHT22;20549;50.042;8.968;2023-05-29T07:15:34;35.80;36.50
30999;DHT22;20549;50.042;8.968;2023-05-29T07:18:00;36.00;36.20
30999;DHT22;20549;50.042;8.968;2023-05-29T07:20:27;36.40;36.20
30999;DHT22;20549;50.042;8.968;2023-05-29T07:22:53;36.60;35.80
30999;DHT22;20549;50.042;8.968;2023-05-29T07:25:20;37.00;35.50
30999;DHT22;20549;50.042;8.968;2023-05-29T07:27:46;37.40;35.50
30999;DHT22;20549;50.042;8.968;2023-05-29T07:30:13;37.80;34.90
30999;DHT22;20549;50.042;8.968;2023-05-29T07:32:40;38.10;34.50
30999;DHT22;20549;50.042;8.968;2023-05-29T07:35:06;38.50;33.80
30999;DHT22;20549;50.042;8.968;2023-05-29T07:37:34;38.80;33.20
30999;DHT22;20549;50.042;8.968;2023-05-29T07:39:59;38.90;32.60
30999;DHT22;20549;50.042;8.968;2023-05-29T07:42:26;39.10;33.00
30999;DHT22;20549;50.042;8.968;2023-05-29T07:44:53;39.30;32.30
30999;DHT22;20549;50.042;8.968;2023-05-29T07:47:19;39.40;32.10
30999;DHT22;20549;50.042;8.968;2023-05-29T07:49:46;39.60;31.70
30999;DHT22;20549;50.042;8.968;2023-05-29T07:52:12;39.90;31.60
30999;DHT22;20549;50.042;8.968;2023-05-29T07:54:39;40.10;31.30
30999;DHT22;20549;50.042;8.968;2023-05-29T07:57:06;40.30;31.00
30999;DHT22;20549;50.042;8.968;2023-05-29T07:59:41;40.50;30.60
30999;DHT22;20549;50.042;8.968;2023-05-29T08:02:05;40.60;30.10
30999;DHT22;20549;50.042;8.968;2023-05-29T08:04:31;40.70;30.00
30999;DHT22;20549;50.042;8.968;2023-05-29T08:06:59;40.70;29.90
30999;DHT22;20549;50.042;8.968;2023-05-29T08:09:24;40.90;29.80
30999;DHT22;20549;50.042;8.968;2023-05-29T08:11:51;40.90;29.50
30999;DHT22;20549;50.042;8.968;2023-05-29T08:14:18;41.00;29.40
30999;DHT22;20549;50.042;8.968;2023-05-29T08:16:44;41.10;29.20
30999;DHT22;20549;50.042;8.968;2023-05-29T08:19:11;41.10;28.60
30999;DHT22;20549;50.042;8.968;2023-05-29T08:21:37;41.10;28.90
30999;DHT22;20549;50.042;8.968;2023-05-29T08:24:04;41.10;28.60
30999;DHT22;20549;50.042;8.968;2023-05-29T08:26:34;41.10;28.60
30999;DHT22;20549;50.042;8.968;2023-05-29T08:29:00;41.20;28.60
30999;DHT22;20549;50.042;8.968;2023-05-29T08:31:26;41.30;28.60
30999;DHT22;20549;50.042;8.968;2023-05-29T08:33:53;41.40;28.50
30999;DHT22;20549;50.042;8.968;2023-05-29T08:36:20;41.50;28.50
30999;DHT22;20549;50.042;8.968;2023-05-29T08:38:49;41.70;28.60
30999;DHT22;20549;50.042;8.968;2023-05-29T08:41:25;41.80;28.40
30999;DHT22;20549;50.042;8.968;2023-05-29T08:43:42;42.10;28.30
30999;DHT22;20549;50.042;8.968;2023-05-29T08:46:09;42.30;28.10
30999;DHT22;20549;50.042;8.968;2023-05-29T08:48:36;42.50;28.00
30999;DHT22;20549;50.042;8.968;2023-05-29T08:51:02;42.60;27.80
30999;DHT22;20549;50.042;8.968;2023-05-29T08:53:28;42.90;27.90
30999;DHT22;20549;50.042;8.968;2023-05-29T08:55:55;43.10;27.40
30999;DHT22;20549;50.042;8.968;2023-05-29T08:58:22;43.30;27.40
30999;DHT22;20549;50.042;8.968;2023-05-29T09:00:48;43.50;27.20
30999;DHT22;20549;50.042;8.968;2023-05-29T09:03:15;43.70;26.80
30999;DHT22;20549;50.042;8.968;2023-05-29T09:05:41;43.80;26.60
30999;DHT22;20549;50.042;8.968;2023-05-29T09:08:08;43.90;26.40
30999;DHT22;20549;50.042;8.968;2023-05-29T09:10:34;44.00;26.10
30999;DHT22;20549;50.042;8.968;2023-05-29T09:13:01;44.10;26.10
30999;DHT22;20549;50.042;8.968;2023-05-29T09:15:28;44.10;25.90
30999;DHT22;20549;50.042;8.968;2023-05-29T09:17:55;44.30;26.00
30999;DHT22;20549;50.042;8.968;2023-05-29T09:20:21;44.30;25.80
30999;DHT22;20549;50.042;8.968;2023-05-29T09:22:57;44.50;25.70
30999;DHT22;20549;50.042;8.968;2023-05-29T09:25:23;44.50;25.60
30999;DHT22;20549;50.042;8.968;2023-05-29T09:27:55;44.60;25.40
30999;DHT22;20549;50.042;8.968;2023-05-29T09:30:44;44.70;25.60
30999;DHT22;20549;50.042;8.968;2023-05-29T09:33:10;44.80;25.30
30999;DHT22;20549;50.042;8.968;2023-05-29T09:35:37;44.80;25.10
30999;DHT22;20549;50.042;8.968;2023-05-29T09:38:03;44.80;24.90
30999;DHT22;20549;50.042;8.968;2023-05-29T09:40:30;44.80;24.90
30999;DHT22;20549;50.042;8.968;2023-05-29T09:43:00;44.80;24.10
30999;DHT22;20549;50.042;8.968;2023-05-29T09:45:23;44.70;24.50
30999;DHT22;20549;50.042;8.968;2023-05-29T09:47:50;44.60;24.40
30999;DHT22;20549;50.042;8.968;2023-05-29T09:50:19;44.50;24.40
30999;DHT22;20549;50.042;8.968;2023-05-29T09:52:48;44.20;24.30
30999;DHT22;20549;50.042;8.968;2023-05-29T09:55:14;43.90;24.10
30999;DHT22;20549;50.042;8.968;2023-05-29T09:57:41;43.60;24.00
30999;DHT22;20549;50.042;8.968;2023-05-29T10:00:08;43.10;24.10
30999;DHT22;20549;50.042;8.968;2023-05-29T10:02:34;42.70;23.90
30999;DHT22;20549;50.042;8.968;2023-05-29T10:05:01;42.10;23.80
30999;DHT22;20549;50.042;8.968;2023-05-29T10:07:28;41.50;23.90
30999;DHT22;20549;50.042;8.968;2023-05-29T10:10:00;40.90;24.20
30999;DHT22;20549;50.042;8.968;2023-05-29T10:12:26;40.30;24.20
30999;DHT22;20549;50.042;8.968;2023-05-29T10:14:56;39.70;24.20
30999;DHT22;20549;50.042;8.968;2023-05-29T10:17:22;39.30;24.40
30999;DHT22;20549;50.042;8.968;2023-05-29T10:19:49;38.70;24.30
30999;DHT22;20549;50.042;8.968;2023-05-29T10:22:16;38.30;24.60
30999;DHT22;20549;50.042;8.968;2023-05-29T10:24:42;37.80;24.90
30999;DHT22;20549;50.042;8.968;2023-05-29T10:27:08;37.30;24.80
30999;DHT22;20549;50.042;8.968;2023-05-29T10:29:39;36.90;24.70
30999;DHT22;20549;50.042;8.968;2023-05-29T10:32:06;36.50;24.40
30999;DHT22;20549;50.042;8.968;2023-05-29T10:37:35;35.50;24.50
30999;DHT22;20549;50.042;8.968;2023-05-29T10:40:07;34.90;24.50
30999;DHT22;20549;50.042;8.968;2023-05-29T10:45:05;34.00;25.00
30999;DHT22;20549;50.042;8.968;2023-05-29T10:47:32;33.60;25.30
30999;DHT22;20549;50.042;8.968;2023-05-29T10:50:01;33.20;25.50
30999;DHT22;20549;50.042;8.968;2023-05-29T10:52:31;32.90;25.90
30999;DHT22;20549;50.042;8.968;2023-05-29T10:54:57;32.60;25.90
30999;DHT22;20549;50.042;8.968;2023-05-29T10:57:24;32.30;26.10
30999;DHT22;20549;50.042;8.968;2023-05-29T11:00:02;32.00;26.40
30999;DHT22;20549;50.042;8.968;2023-05-29T11:02:26;31.80;26.80
30999;DHT22;20549;50.042;8.968;2023-05-29T11:05:18;31.50;27.10
30999;DHT22;20549;50.042;8.968;2023-05-29T11:07:59;31.30;27.20
30999;DHT22;20549;50.042;8.968;2023-05-29T11:13:23;31.00;27.60
30999;DHT22;20549;50.042;8.968;2023-05-29T11:16:03;30.80;27.30
30999;DHT22;20549;50.042;8.968;2023-05-29T11:18:16;30.70;27.50
30999;DHT22;20549;50.042;8.968;2023-05-29T11:20:43;30.50;27.80
30999;DHT22;20549;50.042;8.968;2023-05-29T11:23:09;30.40;28.00
30999;DHT22;20549;50.042;8.968;2023-05-29T11:25:36;30.30;28.30
30999;DHT22;20549;50.042;8.968;2023-05-29T11:28:05;30.30;28.60
30999;DHT22;20549;50.042;8.968;2023-05-29T11:30:31;30.20;28.60
30999;DHT22;20549;50.042;8.968;2023-05-29T11:32:59;30.10;28.70
30999;DHT22;20549;50.042;8.968;2023-05-29T11:35:25;30.10;28.80
30999;DHT22;20549;50.042;8.968;2023-05-29T11:37:51;30.00;28.80
30999;DHT22;20549;50.042;8.968;2023-05-29T11:40:18;29.90;28.90
30999;DHT22;20549;50.042;8.968;2023-05-29T11:42:45;29.90;29.00
30999;DHT22;20549;50.042;8.968;2023-05-29T11:45:17;29.80;29.20
30999;DHT22;20549;50.042;8.968;2023-05-29T11:47:56;29.70;29.40
30999;DHT22;20549;50.042;8.968;2023-05-29T11:50:22;29.60;29.50
30999;DHT22;20549;50.042;8.968;2023-05-29T11:52:48;29.60;29.60
30999;DHT22;20549;50.042;8.968;2023-05-29T11:55:15;29.50;29.60
30999;DHT22;20549;50.042;8.968;2023-05-29T11:57:41;29.50;30.00
30999;DHT22;20549;50.042;8.968;2023-05-29T12:00:11;29.50;29.90
30999;DHT22;20549;50.042;8.968;2023-05-29T12:02:37;29.40;30.00
30999;DHT22;20549;50.042;8.968;2023-05-29T12:05:04;29.40;30.00
30999;DHT22;20549;50.042;8.968;2023-05-29T12:07:30;29.40;30.00
30999;DHT22;20549;50.042;8.968;2023-05-29T12:09:57;29.40;30.00
30999;DHT22;20549;50.042;8.968;2023-05-29T12:12:23;29.30;30.20
30999;DHT22;20549;50.042;8.968;2023-05-29T12:14:50;29.30;30.30
30999;DHT22;20549;50.042;8.968;2023-05-29T12:17:17;29.20;30.60
30999;DHT22;20549;50.042;8.968;2023-05-29T12:19:43;29.20;30.70
30999;DHT22;20549;50.042;8.968;2023-05-29T12:22:10;29.20;30.80
30999;DHT22;20549;50.042;8.968;2023-05-29T12:24:36;29.20;30.80
30999;DHT22;20549;50.042;8.968;2023-05-29T12:27:07;29.20;30.70
30999;DHT22;20549;50.042;8.968;2023-05-29T12:29:35;29.30;30.70
30999;DHT22;20549;50.042;8.968;2023-05-29T12:32:02;29.30;30.50
30999;DHT22;20549;50.042;8.968;2023-05-29T12:34:33;29.30;30.40
30999;DHT22;20549;50.042;8.968;2023-05-29T12:36:56;29.30;30.40
30999;DHT22;20549;50.042;8.968;2023-05-29T12:39:22;29.30;30.60
30999;DHT22;20549;50.042;8.968;2023-05-29T12:41:48;29.30;30.70
30999;DHT22;20549;50.042;8.968;2023-05-29T12:44:15;29.30;30.50
30999;DHT22;20549;50.042;8.968;2023-05-29T12:46:42;29.40;30.60
30999;DHT22;20549;50.042;8.968;2023-05-29T12:49:11;29.40;30.40
30999;DHT22;20549;50.042;8.968;2023-05-29T12:51:39;29.40;30.30
30999;DHT22;20549;50.042;8.968;2023-05-29T12:54:04;29.40;30.40
30999;DHT22;20549;50.042;8.968;2023-05-29T12:56:31;29.30;30.50
30999;DHT22;20549;50.042;8.968;2023-05-29T12:58:57;29.30;30.50
30999;DHT22;20549;50.042;8.968;2023-05-29T13:01:24;29.30;30.70
30999;DHT22;20549;50.042;8.968;2023-05-29T13:03:50;29.30;30.80
30999;DHT22;20549;50.042;8.968;2023-05-29T13:06:17;29.30;30.90
30999;DHT22;20549;50.042;8.968;2023-05-29T13:08:44;29.40;30.90
30999;DHT22;20549;50.042;8.968;2023-05-29T13:11:10;29.40;30.90
30999;DHT22;20549;50.042;8.968;2023-05-29T13:13:37;29.40;31.00
30999;DHT22;20549;50.042;8.968;2023-05-29T13:16:03;29.40;31.00
30999;DHT22;20549;50.042;8.968;2023-05-29T13:18:30;29.50;30.40
30999;DHT22;20549;50.042;8.968;2023-05-29T13:20:56;29.50;31.10
30999;DHT22;20549;50.042;8.968;2023-05-29T13:23:23;29.50;31.40
30999;DHT22;20549;50.042;8.968;2023-05-29T13:25:50;29.50;31.40
30999;DHT22;20549;50.042;8.968;2023-05-29T13:28:16;29.50;31.50
30999;DHT22;20549;50.042;8.968;2023-05-29T13:30:43;29.60;31.60
30999;DHT22;20549;50.042;8.968;2023-05-29T13:33:09;29.60;31.50
30999;DHT22;20549;50.042;8.968;2023-05-29T13:35:36;29.60;31.40
30999;DHT22;20549;50.042;8.968;2023-05-29T13:38:03;29.60;31.40
30999;DHT22;20549;50.042;8.968;2023-05-29T13:40:29;29.70;31.50
30999;DHT22;20549;50.042;8.968;2023-05-29T13:42:56;29.70;31.60
30999;DHT22;20549;50.042;8.968;2023-05-29T13:45:22;29.70;31.80
30999;DHT22;20549;50.042;8.968;2023-05-29T13:47:49;29.70;32.00
30999;DHT22;20549;50.042;8.968;2023-05-29T13:50:16;29.80;32.10
30999;DHT22;20549;50.042;8.968;2023-05-29T13:52:42;29.80;31.80
30999;DHT22;20549;50.042;8.968;2023-05-29T13:55:09;29.90;32.00
30999;DHT22;20549;50.042;8.968;2023-05-29T13:57:35;29.90;31.90
30999;DHT22;20549;50.042;8.968;2023-05-29T14:00:03;29.90;31.90
30999;DHT22;20549;50.042;8.968;2023-05-29T14:02:29;29.90;31.80
30999;DHT22;20549;50.042;8.968;2023-05-29T14:04:55;29.90;31.80
30999;DHT22;20549;50.042;8.968;2023-05-29T14:07:22;29.90;31.80
30999;DHT22;20549;50.042;8.968;2023-05-29T14:09:48;29.80;31.70
30999;DHT22;20549;50.042;8.968;2023-05-29T14:12:15;29.80;31.90
30999;DHT22;20549;50.042;8.968;2023-05-29T14:14:42;29.80;31.90
30999;DHT22;20549;50.042;8.968;2023-05-29T14:17:08;29.70;31.70
30999;DHT22;20549;50.042;8.968;2023-05-29T14:19:35;29.70;31.60
30999;DHT22;20549;50.042;8.968;2023-05-29T14:22:01;29.70;31.70
30999;DHT22;20549;50.042;8.968;2023-05-29T14:24:28;29.60;31.70
30999;DHT22;20549;50.042;8.968;2023-05-29T14:26:54;29.50;31.80
30999;DHT22;20549;50.042;8.968;2023-05-29T14:29:21;29.50;31.90
30999;DHT22;20549;50.042;8.968;2023-05-29T14:31:48;29.40;32.00
30999;DHT22;20549;50.042;8.968;2023-05-29T14:34:14;29.40;32.10
30999;DHT22;20549;50.042;8.968;2023-05-29T14:36:41;29.40;32.20
30999;DHT22;20549;50.042;8.968;2023-05-29T14:39:07;29.30;32.10
30999;DHT22;20549;50.042;8.968;2023-05-29T14:41:34;29.30;32.30
30999;DHT22;20549;50.042;8.968;2023-05-29T14:44:01;29.30;32.40
30999;DHT22;20549;50.042;8.968;2023-05-29T14:46:27;29.20;32.40
30999;DHT22;20549;50.042;8.968;2023-05-29T14:48:54;29.20;32.60
30999;DHT22;20549;50.042;8.968;2023-05-29T14:51:20;29.20;32.60
30999;DHT22;20549;50.042;8.968;2023-05-29T14:53:47;29.10;32.60
30999;DHT22;20549;50.042;8.968;2023-05-29T14:56:13;29.10;32.80
30999;DHT22;20549;50.042;8.968;2023-05-29T14:58:40;29.10;32.90
30999;DHT22;20549;50.042;8.968;2023-05-29T15:01:07;29.10;32.90
30999;DHT22;20549;50.042;8.968;2023-05-29T15:03:33;29.00;32.80
30999;DHT22;20549;50.042;8.968;2023-05-29T15:06:00;29.00;32.80
30999;DHT22;20549;50.042;8.968;2023-05-29T15:08:26;29.00;33.00
30999;DHT22;20549;50.042;8.968;2023-05-29T15:10:53;28.90;33.00
30999;DHT22;20549;50.042;8.968;2023-05-29T15:13:20;28.90;33.20
30999;DHT22;20549;50.042;8.968;2023-05-29T15:15:46;28.90;33.10
30999;DHT22;20549;50.042;8.968;2023-05-29T15:18:13;28.90;33.20
30999;DHT22;20549;50.042;8.968;2023-05-29T15:20:39;28.80;33.20
30999;DHT22;20549;50.042;8.968;2023-05-29T15:23:06;28.80;33.30
30999;DHT22;20549;50.042;8.968;2023-05-29T15:25:33;28.80;33.50
30999;DHT22;20549;50.042;8.968;2023-05-29T15:27:59;28.80;33.40
30999;DHT22;20549;50.042;8.968;2023-05-29T15:30:26;28.70;33.50
30999;DHT22;20549;50.042;8.968;2023-05-29T15:32:52;28.70;33.60
30999;DHT22;20549;50.042;8.968;2023-05-29T15:35:19;28.60;33.40
30999;DHT22;20549;50.042;8.968;2023-05-29T15:37:45;28.60;33.40
30999;DHT22;20549;50.042;8.968;2023-05-29T15:40:12;28.60;33.70
30999;DHT22;20549;50.042;8.968;2023-05-29T15:42:39;28.50;33.70
30999;DHT22;20549;50.042;8.968;2023-05-29T15:45:07;28.50;34.00
30999;DHT22;20549;50.042;8.968;2023-05-29T15:47:33;28.50;34.20
30999;DHT22;20549;50.042;8.968;2023-05-29T15:50:00;28.50;34.10
30999;DHT22;20549;50.042;8.968;2023-05-29T15:52:26;28.40;34.10
30999;DHT22;20549;50.042;8.968;2023-05-29T15:54:53;28.40;34.10
30999;DHT22;20549;50.042;8.968;2023-05-29T15:57:19;28.40;34.30
30999;DHT22;20549;50.042;8.968;2023-05-29T15:59:46;28.40;34.30
30999;DHT22;20549;50.042;8.968;2023-05-29T16:02:13;28.30;34.40
30999;DHT22;20549;50.042;8.968;2023-05-29T16:04:39;28.30;34.40
30999;DHT22;20549;50.042;8.968;2023-05-29T16:07:06;28.30;34.50
30999;DHT22;20549;50.042;8.968;2023-05-29T16:09:33;28.30;34.50
30999;DHT22;20549;50.042;8.968;2023-05-29T16:11:59;28.30;34.50
30999;DHT22;20549;50.042;8.968;2023-05-29T16:14:26;28.20;34.40
30999;DHT22;20549;50.042;8.968;2023-05-29T16:16:52;28.20;34.50
30999;DHT22;20549;50.042;8.968;2023-05-29T16:19:19;28.20;34.60
30999;DHT22;20549;50.042;8.968;2023-05-29T16:21:45;28.20;34.70
30999;DHT22;20549;50.042;8.968;2023-05-29T16:24:12;28.10;34.80
30999;DHT22;20549;50.042;8.968;2023-05-29T16:26:39;28.10;34.90
30999;DHT22;20549;50.042;8.968;2023-05-29T16:29:05;28.00;34.80
30999;DHT22;20549;50.042;8.968;2023-05-29T16:31:32;28.00;34.90
30999;DHT22;20549;50.042;8.968;2023-05-29T16:33:58;27.90;35.00
30999;DHT22;20549;50.042;8.968;2023-05-29T16:36:25;27.90;35.10
30999;DHT22;20549;50.042;8.968;2023-05-29T16:38:52;27.80;35.10
30999;DHT22;20549;50.042;8.968;2023-05-29T16:41:18;27.80;35.30
30999;DHT22;20549;50.042;8.968;2023-05-29T16:43:45;27.70;35.30
30999;DHT22;20549;50.042;8.968;2023-05-29T16:46:11;27.70;35.40
30999;DHT22;20549;50.042;8.968;2023-05-29T16:48:38;27.70;35.50
30999;DHT22;20549;50.042;8.968;2023-05-29T16:51:05;27.60;35.50
30999;DHT22;20549;50.042;8.968;2023-05-29T16:53:31;27.60;35.60